sensor_id;sensor_type;location;lat;lon;timestamp;pressure;altitude;pressure_sealevel;temperature;humidity
11499;BME280;5806;48.748;9.278;2023-08-08T00:01:01;100952.48;;;13.80;88.66
11499;BME280;5806;48.748;9.278;2023-08-08T00:03:29;100955.97;;;13.97;87.77
11499;BME280;5806;48.748;9.278;2023-08-08T00:05:56;100950.72;;;13.96;88.04
11499;BME280;5806;48.748;9.278;2023-08-08T00:08:24;100952.73;;;14.03;87.61
11499;BME280;5806;48.748;9.278;2023-08-08T00:10:52;100953.47;;;13.96;87.61
11499;BME280;5806;48.748;9.278;2023-08-08T00:13:19;100950.23;;;14.01;86.78
11499;BME280;5806;48.748;9.278;2023-08-08T00:15:47;100944.14;;;13.99;86.76
11499;BME280;5806;48.748;9.278;2023-08-08T00:18:14;100938.55;;;13.89;86.97
11499;BME280;5806;48.748;9.278;2023-08-08T00:20:42;100932.48;;;13.90;87.37
11499;BME280;5806;48.748;9.278;2023-08-08T00:23:09;100930.07;;;13.93;87.25
11499;BME280;5806;48.748;9.278;2023-08-08T00:25:37;100930.09;;;13.96;86.99
11499;BME280;5806;48.748;9.278;2023-08-08T00:28:05;100925.61;;;13.90;87.04
11499;BME280;5806;48.748;9.278;2023-08-08T00:30:32;100936.52;;;13.80;87.36
11499;BME280;5806;48.748;9.278;2023-08-08T00:33:00;100935.61;;;13.98;86.74
11499;BME280;5806;48.748;9.278;2023-08-08T00:35:27;100938.73;;;13.80;87.55
11499;BME280;5806;48.748;9.278;2023-08-08T00:37:54;100936.08;;;13.90;86.95
11499;BME280;5806;48.748;9.278;2023-08-08T00:40:22;100935.01;;;13.70;87.26
11499;BME280;5806;48.748;9.278;2023-08-08T00:42:50;100935.39;;;13.78;87.23
11499;BME280;5806;48.748;9.278;2023-08-08T00:45:17;100922.13;;;13.73;87.59
11499;BME280;5806;48.748;9.278;2023-08-08T00:47:45;100923.97;;;13.65;87.57
11499;BME280;5806;48.748;9.278;2023-08-08T00:50:13;100924.60;;;13.72;87.36
11499;BME280;5806;48.748;9.278;2023-08-08T00:52:42;100927.98;;;13.55;87.62
11499;BME280;5806;48.748;9.278;2023-08-08T00:55:10;100926.75;;;13.46;88.38
11499;BME280;5806;48.748;9.278;2023-08-08T00:57:41;100923.30;;;13.55;87.51
11499;BME280;5806;48.748;9.278;2023-08-08T01:00:09;100921.63;;;13.52;87.74
11499;BME280;5806;48.748;9.278;2023-08-08T01:02:37;100924.28;;;13.44;87.58
11499;BME280;5806;48.748;9.278;2023-08-08T01:05:07;100926.81;;;13.48;87.38
11499;BME280;5806;48.748;9.278;2023-08-08T01:07:59;100927.09;;;13.49;87.34
11499;BME280;5806;48.748;9.278;2023-08-08T01:10:40;100929.84;;;13.49;87.28
11499;BME280;5806;48.748;9.278;2023-08-08T01:13:21;100922.52;;;13.57;86.85
11499;BME280;5806;48.748;9.278;2023-08-08T01:15:46;100923.61;;;13.56;87.35
11499;BME280;5806;48.748;9.278;2023-08-08T01:18:16;100922.81;;;13.61;86.72
11499;BME280;5806;48.748;9.278;2023-08-08T01:20:46;100926.22;;;13.46;88.29
11499;BME280;5806;48.748;9.278;2023-08-08T01:23:28;100926.07;;;13.58;87.35
11499;BME280;5806;48.748;9.278;2023-08-08T01:25:58;100926.36;;;13.56;87.47
11499;BME280;5806;48.748;9.278;2023-08-08T01:28:26;100923.66;;;13.61;87.65
11499;BME280;5806;48.748;9.278;2023-08-08T01:30:54;100929.20;;;13.66;87.18
11499;BME280;5806;48.748;9.278;2023-08-08T01:33:21;100925.27;;;13.57;87.09
11499;BME280;5806;48.748;9.278;2023-08-08T01:35:52;100915.05;;;13.55;87.12
11499;BME280;5806;48.748;9.278;2023-08-08T01:38:28;100922.54;;;13.60;87.46
11499;BME280;5806;48.748;9.278;2023-08-08T01:40:57;100924.53;;;13.64;86.95
11499;BME280;5806;48.748;9.278;2023-08-08T01:43:25;100918.41;;;13.60;87.66
11499;BME280;5806;48.748;9.278;2023-08-08T01:45:54;100912.10;;;13.62;86.96
11499;BME280;5806;48.748;9.278;2023-08-08T01:48:21;100910.81;;;13.67;86.43
11499;BME280;5806;48.748;9.278;2023-08-08T01:50:49;100906.89;;;13.60;87.08
11499;BME280;5806;48.748;9.278;2023-08-08T01:53:17;100911.27;;;13.59;87.04
11499;BME280;5806;48.748;9.278;2023-08-08T01:55:44;100907.03;;;13.51;86.91
11499;BME280;5806;48.748;9.278;2023-08-08T01:58:12;100911.06;;;13.65;86.76
11499;BME280;5806;48.748;9.278;2023-08-08T02:00:39;100912.23;;;13.48;88.17
11499;BME280;5806;48.748;9.278;2023-08-08T02:03:11;100915.95;;;13.61;86.87
11499;BME280;5806;48.748;9.278;2023-08-08T02:05:39;100914.63;;;13.66;86.90
11499;BME280;5806;48.748;9.278;2023-08-08T02:08:06;100917.57;;;13.59;87.35
11499;BME280;5806;48.748;9.278;2023-08-08T02:10:34;100913.45;;;13.59;87.40
11499;BME280;5806;48.748;9.278;2023-08-08T02:13:01;100911.77;;;13.56;87.68
11499;BME280;5806;48.748;9.278;2023-08-08T02:15:29;100912.37;;;13.36;88.56
11499;BME280;5806;48.748;9.278;2023-08-08T02:17:56;100904.31;;;13.54;87.91
11499;BME280;5806;48.748;9.278;2023-08-08T02:20:24;100899.97;;;13.58;87.18
11499;BME280;5806;48.748;9.278;2023-08-08T02:22:51;100896.63;;;13.53;86.95
11499;BME280;5806;48.748;9.278;2023-08-08T02:25:19;100896.36;;;13.52;87.24
11499;BME280;5806;48.748;9.278;2023-08-08T02:27:46;100890.34;;;13.58;86.97
11499;BME280;5806;48.748;9.278;2023-08-08T02:30:14;100892.78;;;13.54;87.42
11499;BME280;5806;48.748;9.278;2023-08-08T02:32:42;100884.82;;;13.55;87.81
11499;BME280;5806;48.748;9.278;2023-08-08T02:35:09;100886.88;;;13.43;87.78
11499;BME280;5806;48.748;9.278;2023-08-08T02:37:37;100884.87;;;13.34;88.05
11499;BME280;5806;48.748;9.278;2023-08-08T02:40:05;100875.56;;;13.37;87.41
11499;BME280;5806;48.748;9.278;2023-08-08T02:42:34;100883.66;;;13.27;87.60
11499;BME280;5806;48.748;9.278;2023-08-08T02:45:02;100881.20;;;13.26;87.57
11499;BME280;5806;48.748;9.278;2023-08-08T02:47:29;100883.80;;;13.16;88.15
11499;BME280;5806;48.748;9.278;2023-08-08T02:49:58;100877.16;;;13.12;87.67
11499;BME280;5806;48.748;9.278;2023-08-08T02:52:26;100873.88;;;13.12;88.05
11499;BME280;5806;48.748;9.278;2023-08-08T02:54:55;100871.23;;;13.01;88.57
11499;BME280;5806;48.748;9.278;2023-08-08T02:57:22;100862.80;;;13.07;88.00
11499;BME280;5806;48.748;9.278;2023-08-08T02:59:50;100868.61;;;13.08;88.02
11499;BME280;5806;48.748;9.278;2023-08-08T03:02:18;100859.05;;;13.13;87.41
11499;BME280;5806;48.748;9.278;2023-08-08T03:04:45;100866.11;;;13.07;87.97
11499;BME280;5806;48.748;9.278;2023-08-08T03:07:13;100864.55;;;13.13;87.82
11499;BME280;5806;48.748;9.278;2023-08-08T03:09:40;100873.41;;;13.18;87.33
11499;BME280;5806;48.748;9.278;2023-08-08T03:12:08;100867.48;;;13.07;87.46
11499;BME280;5806;48.748;9.278;2023-08-08T03:14:36;100864.13;;;13.02;87.61
11499;BME280;5806;48.748;9.278;2023-08-08T03:17:04;100864.06;;;12.97;87.74
11499;BME280;5806;48.748;9.278;2023-08-08T03:19:32;100857.41;;;12.96;87.82
11499;BME280;5806;48.748;9.278;2023-08-08T03:22:00;100852.09;;;12.87;87.94
11499;BME280;5806;48.748;9.278;2023-08-08T03:24:28;100847.37;;;12.85;87.82
11499;BME280;5806;48.748;9.278;2023-08-08T03:26:55;100851.86;;;12.91;87.53
11499;BME280;5806;48.748;9.278;2023-08-08T03:29:23;100849.18;;;12.96;87.32
11499;BME280;5806;48.748;9.278;2023-08-08T03:31:50;100844.29;;;12.79;87.75
11499;BME280;5806;48.748;9.278;2023-08-08T03:34:18;100860.35;;;12.89;87.74
11499;BME280;5806;48.748;9.278;2023-08-08T03:36:45;100853.45;;;12.87;87.98
11499;BME280;5806;48.748;9.278;2023-08-08T03:39:13;100849.09;;;12.88;87.51
11499;BME280;5806;48.748;9.278;2023-08-08T03:41:40;100846.22;;;12.97;87.58
11499;BME280;5806;48.748;9.278;2023-08-08T03:44:08;100848.69;;;12.80;87.89
11499;BME280;5806;48.748;9.278;2023-08-08T03:46:35;100848.00;;;12.89;87.67
11499;BME280;5806;48.748;9.278;2023-08-08T03:49:03;100854.86;;;12.89;87.84
11499;BME280;5806;48.748;9.278;2023-08-08T03:51:30;100851.40;;;12.77;88.26
11499;BME280;5806;48.748;9.278;2023-08-08T03:53:58;100847.56;;;12.78;87.73
11499;BME280;5806;48.748;9.278;2023-08-08T03:56:25;100844.41;;;12.67;88.15
11499;BME280;5806;48.748;9.278;2023-08-08T03:58:53;100847.56;;;12.78;87.81
11499;BME280;5806;48.748;9.278;2023-08-08T04:01:21;100843.14;;;12.75;87.60
11499;BME280;5806;48.748;9.278;2023-08-08T04:03:48;100845.16;;;12.82;87.54
11499;BME280;5806;48.748;9.278;2023-08-08T04:06:16;100849.25;;;12.79;87.66
11499;BME280;5806;48.748;9.278;2023-08-08T04:08:43;100853.08;;;12.97;87.26
11499;BME280;5806;48.748;9.278;2023-08-08T04:11:11;100852.77;;;12.77;87.59
11499;BME280;5806;48.748;9.278;2023-08-08T04:13:38;100854.95;;;12.75;88.05
11499;BME280;5806;48.748;9.278;2023-08-08T04:16:06;100854.27;;;12.66;88.54
11499;BME280;5806;48.748;9.278;2023-08-08T04:18:33;100856.33;;;12.75;88.76
11499;BME280;5806;48.748;9.278;2023-08-08T04:21:01;100856.17;;;12.84;87.36
11499;BME280;5806;48.748;9.278;2023-08-08T04:23:28;100853.83;;;12.74;88.27
11499;BME280;5806;48.748;9.278;2023-08-08T04:25:56;100856.86;;;12.75;88.83
11499;BME280;5806;48.748;9.278;2023-08-08T04:28:24;100858.23;;;12.94;88.05
11499;BME280;5806;48.748;9.278;2023-08-08T04:30:51;100870.70;;;13.01;88.23
11499;BME280;5806;48.748;9.278;2023-08-08T04:33:19;100871.89;;;13.08;87.71
11499;BME280;5806;48.748;9.278;2023-08-08T04:35:46;100865.46;;;13.00;89.17
11499;BME280;5806;48.748;9.278;2023-08-08T04:38:14;100865.66;;;12.96;88.90
11499;BME280;5806;48.748;9.278;2023-08-08T04:40:42;100864.75;;;12.90;88.91
11499;BME280;5806;48.748;9.278;2023-08-08T04:43:09;100863.84;;;13.01;88.84
11499;BME280;5806;48.748;9.278;2023-08-08T04:45:37;100859.60;;;12.94;89.32
11499;BME280;5806;48.748;9.278;2023-08-08T04:48:05;100861.80;;;13.13;88.51
11499;BME280;5806;48.748;9.278;2023-08-08T04:50:32;100852.75;;;13.15;88.48
11499;BME280;5806;48.748;9.278;2023-08-08T04:53:00;100853.89;;;13.19;88.15
11499;BME280;5806;48.748;9.278;2023-08-08T04:55:28;100851.71;;;13.19;88.02
11499;BME280;5806;48.748;9.278;2023-08-08T04:57:55;100857.23;;;13.21;87.43
11499;BME280;5806;48.748;9.278;2023-08-08T05:00:23;100851.73;;;13.21;87.21
11499;BME280;5806;48.748;9.278;2023-08-08T05:02:50;100855.10;;;13.26;87.15
11499;BME280;5806;48.748;9.278;2023-08-08T05:05:18;100850.14;;;13.25;87.34
11499;BME280;5806;48.748;9.278;2023-08-08T05:07:45;100852.71;;;13.34;87.04
11499;BME280;5806;48.748;9.278;2023-08-08T05:10:13;100848.64;;;13.39;85.99
11499;BME280;5806;48.748;9.278;2023-08-08T05:12:40;100844.22;;;13.36;86.63
11499;BME280;5806;48.748;9.278;2023-08-08T05:15:08;100840.45;;;13.42;86.68
11499;BME280;5806;48.748;9.278;2023-08-08T05:17:35;100837.63;;;13.37;86.51
11499;BME280;5806;48.748;9.278;2023-08-08T05:20:04;100837.52;;;13.51;86.25
11499;BME280;5806;48.748;9.278;2023-08-08T05:22:32;100833.94;;;13.50;86.23
11499;BME280;5806;48.748;9.278;2023-08-08T05:24:59;100836.17;;;13.53;85.81
11499;BME280;5806;48.748;9.278;2023-08-08T05:27:27;100829.28;;;13.51;86.26
11499;BME280;5806;48.748;9.278;2023-08-08T05:29:54;100832.94;;;13.59;85.13
11499;BME280;5806;48.748;9.278;2023-08-08T05:32:21;100829.03;;;13.52;85.89
11499;BME280;5806;48.748;9.278;2023-08-08T05:34:51;100823.02;;;13.58;86.00
11499;BME280;5806;48.748;9.278;2023-08-08T05:37:18;100826.53;;;13.77;85.03
11499;BME280;5806;48.748;9.278;2023-08-08T05:39:46;100827.88;;;13.75;84.70
11499;BME280;5806;48.748;9.278;2023-08-08T05:42:13;100825.03;;;13.67;85.96
11499;BME280;5806;48.748;9.278;2023-08-08T05:44:40;100830.91;;;13.76;85.35
11499;BME280;5806;48.748;9.278;2023-08-08T05:47:08;100832.23;;;13.71;85.80
11499;BME280;5806;48.748;9.278;2023-08-08T05:49:35;100832.67;;;13.87;84.83
11499;BME280;5806;48.748;9.278;2023-08-08T05:52:03;100831.94;;;13.96;84.82
11499;BME280;5806;48.748;9.278;2023-08-08T05:54:30;100829.72;;;13.96;85.51
11499;BME280;5806;48.748;9.278;2023-08-08T05:56:58;100828.59;;;13.94;86.17
11499;BME280;5806;48.748;9.278;2023-08-08T05:59:25;100825.65;;;14.03;86.16
11499;BME280;5806;48.748;9.278;2023-08-08T06:01:53;100826.78;;;14.07;86.67
11499;BME280;5806;48.748;9.278;2023-08-08T06:04:20;100830.30;;;14.27;84.86
11499;BME280;5806;48.748;9.278;2023-08-08T06:06:48;100833.44;;;14.43;83.73
11499;BME280;5806;48.748;9.278;2023-08-08T06:09:16;100835.12;;;14.51;82.62
11499;BME280;5806;48.748;9.278;2023-08-08T06:11:43;100837.41;;;14.64;82.24
11499;BME280;5806;48.748;9.278;2023-08-08T06:14:11;100833.34;;;14.72;82.27
11499;BME280;5806;48.748;9.278;2023-08-08T06:16:38;100831.97;;;14.74;81.97
11499;BME280;5806;48.748;9.278;2023-08-08T06:19:06;100843.27;;;14.75;82.37
11499;BME280;5806;48.748;9.278;2023-08-08T06:21:33;100837.52;;;14.84;81.96
11499;BME280;5806;48.748;9.278;2023-08-08T06:24:01;100846.05;;;14.83;81.84
11499;BME280;5806;48.748;9.278;2023-08-08T06:26:28;100841.91;;;14.83;81.62
11499;BME280;5806;48.748;9.278;2023-08-08T06:28:55;100844.47;;;14.92;81.27
11499;BME280;5806;48.748;9.278;2023-08-08T06:31:23;100850.84;;;14.98;81.96
11499;BME280;5806;48.748;9.278;2023-08-08T06:33:50;100847.23;;;14.97;80.96
11499;BME280;5806;48.748;9.278;2023-08-08T06:36:18;100851.97;;;15.04;80.81
11499;BME280;5806;48.748;9.278;2023-08-08T06:38:45;100850.06;;;15.10;80.99
11499;BME280;5806;48.748;9.278;2023-08-08T06:41:13;100850.61;;;15.12;80.42
11499;BME280;5806;48.748;9.278;2023-08-08T06:43:40;100852.58;;;15.19;80.27
11499;BME280;5806;48.748;9.278;2023-08-08T06:46:07;100853.70;;;15.25;79.89
11499;BME280;5806;48.748;9.278;2023-08-08T06:48:35;100849.32;;;15.34;79.11
11499;BME280;5806;48.748;9.278;2023-08-08T06:51:02;100860.87;;;15.29;79.96
11499;BME280;5806;48.748;9.278;2023-08-08T06:53:30;100847.39;;;15.30;78.72
11499;BME280;5806;48.748;9.278;2023-08-08T06:55:57;100848.81;;;15.35;78.21
11499;BME280;5806;48.748;9.278;2023-08-08T06:58:24;100850.47;;;15.41;78.14
11499;BME280;5806;48.748;9.278;2023-08-08T07:00:52;100846.08;;;15.45;77.81
11499;BME280;5806;48.748;9.278;2023-08-08T07:03:20;100841.68;;;15.51;77.15
11499;BME280;5806;48.748;9.278;2023-08-08T07:05:47;100849.69;;;15.53;76.96
11499;BME280;5806;48.748;9.278;2023-08-08T07:08:16;100846.66;;;15.49;77.61
11499;BME280;5806;48.748;9.278;2023-08-08T07:10:44;100851.63;;;15.52;77.00
11499;BME280;5806;48.748;9.278;2023-08-08T07:13:11;100839.77;;;15.54;76.52
11499;BME280;5806;48.748;9.278;2023-08-08T07:15:39;100844.48;;;15.61;76.52
11499;BME280;5806;48.748;9.278;2023-08-08T07:18:06;100842.83;;;15.63;77.41
11499;BME280;5806;48.748;9.278;2023-08-08T07:20:33;100843.64;;;15.66;76.14
11499;BME280;5806;48.748;9.278;2023-08-08T07:23:01;100839.81;;;15.67;76.51
11499;BME280;5806;48.748;9.278;2023-08-08T07:25:29;100836.21;;;15.69;75.85
11499;BME280;5806;48.748;9.278;2023-08-08T07:27:56;100838.97;;;15.66;76.06
11499;BME280;5806;48.748;9.278;2023-08-08T07:30:23;100840.08;;;15.70;76.86
11499;BME280;5806;48.748;9.278;2023-08-08T07:32:51;100840.08;;;15.68;76.38
11499;BME280;5806;48.748;9.278;2023-08-08T07:35:19;100845.33;;;15.69;76.64
11499;BME280;5806;48.748;9.278;2023-08-08T07:37:46;100836.52;;;15.80;75.91
11499;BME280;5806;48.748;9.278;2023-08-08T07:40:20;100832.95;;;15.87;75.78
11499;BME280;5806;48.748;9.278;2023-08-08T07:42:50;100829.34;;;15.89;76.00
11499;BME280;5806;48.748;9.278;2023-08-08T07:45:14;100826.59;;;15.91;76.36
11499;BME280;5806;48.748;9.278;2023-08-08T07:47:42;100828.27;;;15.92;75.88
11499;BME280;5806;48.748;9.278;2023-08-08T07:50:10;100829.08;;;15.90;75.79
11499;BME280;5806;48.748;9.278;2023-08-08T07:52:38;100828.54;;;15.91;75.98
11499;BME280;5806;48.748;9.278;2023-08-08T07:55:06;100827.70;;;15.88;77.31
11499;BME280;5806;48.748;9.278;2023-08-08T07:57:34;100829.08;;;15.85;78.34
11499;BME280;5806;48.748;9.278;2023-08-08T08:00:05;100831.56;;;15.89;77.15
11499;BME280;5806;48.748;9.278;2023-08-08T08:02:34;100835.16;;;15.95;75.23
11499;BME280;5806;48.748;9.278;2023-08-08T08:05:02;100829.92;;;15.93;76.01
11499;BME280;5806;48.748;9.278;2023-08-08T08:07:34;100826.31;;;15.98;75.15
11499;BME280;5806;48.748;9.278;2023-08-08T08:10:03;100829.36;;;16.04;75.34
11499;BME280;5806;48.748;9.278;2023-08-08T08:12:33;100834.06;;;16.11;74.51
11499;BME280;5806;48.748;9.278;2023-08-08T08:15:00;100829.64;;;16.05;75.01
11499;BME280;5806;48.748;9.278;2023-08-08T08:17:27;100834.62;;;16.03;75.70
11499;BME280;5806;48.748;9.278;2023-08-08T08:19:55;100832.69;;;16.11;74.78
11499;BME280;5806;48.748;9.278;2023-08-08T08:22:22;100835.72;;;16.12;74.60
11499;BME280;5806;48.748;9.278;2023-08-08T08:24:50;100834.88;;;16.14;74.64
11499;BME280;5806;48.748;9.278;2023-08-08T08:27:18;100823.28;;;16.19;75.26
11499;BME280;5806;48.748;9.278;2023-08-08T08:29:46;100817.22;;;16.22;75.07
11499;BME280;5806;48.748;9.278;2023-08-08T08:32:13;100820.52;;;16.24;75.85
11499;BME280;5806;48.748;9.278;2023-08-08T08:34:40;100824.11;;;16.30;75.65
11499;BME280;5806;48.748;9.278;2023-08-08T08:37:08;100822.73;;;16.25;73.33
11499;BME280;5806;48.748;9.278;2023-08-08T08:39:35;100819.98;;;16.22;74.52
11499;BME280;5806;48.748;9.278;2023-08-08T08:42:04;100815.56;;;16.11;75.21
11499;BME280;5806;48.748;9.278;2023-08-08T08:44:32;100822.45;;;16.11;75.25
11499;BME280;5806;48.748;9.278;2023-08-08T08:47:02;100813.91;;;16.13;74.35
11499;BME280;5806;48.748;9.278;2023-08-08T08:49:31;100814.45;;;16.07;74.55
11499;BME280;5806;48.748;9.278;2023-08-08T08:51:59;100827.98;;;16.11;74.52
11499;BME280;5806;48.748;9.278;2023-08-08T08:54:31;100827.72;;;16.05;75.56
11499;BME280;5806;48.748;9.278;2023-08-08T08:56:59;100827.44;;;16.09;75.26
11499;BME280;5806;48.748;9.278;2023-08-08T08:59:26;100827.70;;;16.13;74.86
11499;BME280;5806;48.748;9.278;2023-08-08T09:01:55;100827.44;;;16.14;74.97
11499;BME280;5806;48.748;9.278;2023-08-08T09:04:22;100826.32;;;16.15;75.32
11499;BME280;5806;48.748;9.278;2023-08-08T09:06:52;100832.12;;;16.21;74.65
11499;BME280;5806;48.748;9.278;2023-08-08T09:09:20;100826.03;;;16.24;74.37
11499;BME280;5806;48.748;9.278;2023-08-08T09:11:51;100820.80;;;16.15;74.91
11499;BME280;5806;48.748;9.278;2023-08-08T09:14:23;100822.45;;;16.16;74.73
11499;BME280;5806;48.748;9.278;2023-08-08T09:16:51;100827.16;;;16.13;75.46
11499;BME280;5806;48.748;9.278;2023-08-08T09:19:24;100822.75;;;16.20;72.97
11499;BME280;5806;48.748;9.278;2023-08-08T09:21:52;100819.41;;;16.20;73.30
11499;BME280;5806;48.748;9.278;2023-08-08T09:24:20;100822.73;;;16.25;72.35
11499;BME280;5806;48.748;9.278;2023-08-08T09:26:48;100826.03;;;16.24;72.02
11499;BME280;5806;48.748;9.278;2023-08-08T09:29:15;100817.22;;;16.22;72.73
11499;BME280;5806;48.748;9.278;2023-08-08T09:31:43;100819.16;;;16.27;71.92
11499;BME280;5806;48.748;9.278;2023-08-08T09:34:12;100817.48;;;16.28;72.25
11499;BME280;5806;48.748;9.278;2023-08-08T09:36:40;100816.09;;;16.28;71.37
11499;BME280;5806;48.748;9.278;2023-08-08T09:39:08;100818.59;;;16.27;72.01
11499;BME280;5806;48.748;9.278;2023-08-08T09:41:35;100818.30;;;16.34;70.96
11499;BME280;5806;48.748;9.278;2023-08-08T09:44:03;100811.97;;;16.33;71.60
11499;BME280;5806;48.748;9.278;2023-08-08T09:46:30;100823.02;;;16.33;71.69
11499;BME280;5806;48.748;9.278;2023-08-08T09:48:58;100812.81;;;16.44;69.60
11499;BME280;5806;48.748;9.278;2023-08-08T09:51:26;100812.78;;;16.54;68.94
11499;BME280;5806;48.748;9.278;2023-08-08T09:53:53;100817.49;;;16.56;68.55
11499;BME280;5806;48.748;9.278;2023-08-08T09:56:24;100816.66;;;16.53;68.85
11499;BME280;5806;48.748;9.278;2023-08-08T09:58:52;100820.53;;;16.52;69.65
11499;BME280;5806;48.748;9.278;2023-08-08T10:01:21;100815.02;;;16.49;69.28
11499;BME280;5806;48.748;9.278;2023-08-08T10:03:50;100813.94;;;16.43;70.54
11499;BME280;5806;48.748;9.278;2023-08-08T10:06:18;100821.91;;;16.42;71.00
11499;BME280;5806;48.748;9.278;2023-08-08T10:08:46;100821.61;;;16.63;68.54
11499;BME280;5806;48.748;9.278;2023-08-08T10:11:14;100815.48;;;16.84;67.78
11499;BME280;5806;48.748;9.278;2023-08-08T10:13:49;100823.48;;;16.83;68.20
11499;BME280;5806;48.748;9.278;2023-08-08T10:16:17;100823.20;;;16.84;68.34
11499;BME280;5806;48.748;9.278;2023-08-08T10:18:52;100821.83;;;16.82;68.65
11499;BME280;5806;48.748;9.278;2023-08-08T10:21:15;100817.45;;;16.76;68.46
11499;BME280;5806;48.748;9.278;2023-08-08T10:23:44;100820.48;;;16.74;68.33
11499;BME280;5806;48.748;9.278;2023-08-08T10:26:20;100824.05;;;16.82;68.00
11499;BME280;5806;48.748;9.278;2023-08-08T10:28:52;100829.30;;;16.84;67.60
11499;BME280;5806;48.748;9.278;2023-08-08T10:31:21;100824.03;;;16.87;67.78
11499;BME280;5806;48.748;9.278;2023-08-08T10:33:48;100820.97;;;16.94;68.02
11499;BME280;5806;48.748;9.278;2023-08-08T10:36:16;100823.70;;;17.04;67.92
11499;BME280;5806;48.748;9.278;2023-08-08T10:38:46;100811.66;;;17.33;67.44
11499;BME280;5806;48.748;9.278;2023-08-08T10:41:20;100821.02;;;17.50;65.34
11499;BME280;5806;48.748;9.278;2023-08-08T10:43:56;100810.55;;;17.42;65.24
11499;BME280;5806;48.748;9.278;2023-08-08T10:46:29;100819.39;;;17.36;63.62
11499;BME280;5806;48.748;9.278;2023-08-08T10:49:01;100824.99;;;17.26;63.98
11499;BME280;5806;48.748;9.278;2023-08-08T10:51:37;100813.32;;;17.37;63.29
11499;BME280;5806;48.748;9.278;2023-08-08T10:54:06;100815.25;;;17.36;63.57
11499;BME280;5806;48.748;9.278;2023-08-08T10:56:35;100811.71;;;17.26;65.10
11499;BME280;5806;48.748;9.278;2023-08-08T10:59:19;100813.67;;;17.25;63.34
11499;BME280;5806;48.748;9.278;2023-08-08T11:01:45;100810.89;;;17.23;62.83
11499;BME280;5806;48.748;9.278;2023-08-08T11:04:13;100822.84;;;17.13;63.13
11499;BME280;5806;48.748;9.278;2023-08-08T11:06:41;100814.50;;;17.21;62.96
11499;BME280;5806;48.748;9.278;2023-08-08T11:09:08;100815.34;;;17.21;62.50
11499;BME280;5806;48.748;9.278;2023-08-08T11:11:38;100822.83;;;17.16;62.65
11499;BME280;5806;48.748;9.278;2023-08-08T11:14:14;100818.39;;;17.15;62.40
11499;BME280;5806;48.748;9.278;2023-08-08T11:16:43;100819.25;;;17.10;63.41
11499;BME280;5806;48.748;9.278;2023-08-08T11:19:11;100816.75;;;17.11;62.80
11499;BME280;5806;48.748;9.278;2023-08-08T11:21:41;100818.39;;;17.20;62.21
11499;BME280;5806;48.748;9.278;2023-08-08T11:24:09;100812.87;;;17.17;62.90
11499;BME280;5806;48.748;9.278;2023-08-08T11:26:39;100816.09;;;17.37;61.80
11499;BME280;5806;48.748;9.278;2023-08-08T11:29:07;100813.02;;;17.46;61.22
11499;BME280;5806;48.748;9.278;2023-08-08T11:31:35;100814.70;;;17.37;64.10
11499;BME280;5806;48.748;9.278;2023-08-08T11:34:04;100815.00;;;17.33;63.43
11499;BME280;5806;48.748;9.278;2023-08-08T11:36:33;100815.58;;;17.27;62.02
11499;BME280;5806;48.748;9.278;2023-08-08T11:39:04;100814.45;;;17.28;61.57
11499;BME280;5806;48.748;9.278;2023-08-08T11:41:36;100816.41;;;17.23;62.03
11499;BME280;5806;48.748;9.278;2023-08-08T11:44:04;100810.37;;;17.18;63.92
11499;BME280;5806;48.748;9.278;2023-08-08T11:46:34;100804.56;;;17.20;64.08
11499;BME280;5806;48.748;9.278;2023-08-08T11:49:06;100798.47;;;17.25;63.96
11499;BME280;5806;48.748;9.278;2023-08-08T11:51:34;100797.64;;;17.22;63.95
11499;BME280;5806;48.748;9.278;2023-08-08T11:54:03;100789.33;;;17.25;64.11
11499;BME280;5806;48.748;9.278;2023-08-08T11:56:33;100794.52;;;17.44;61.58
11499;BME280;5806;48.748;9.278;2023-08-08T11:59:01;100795.63;;;17.40;62.19
11499;BME280;5806;48.748;9.278;2023-08-08T12:01:30;100795.28;;;17.49;60.94
11499;BME280;5806;48.748;9.278;2023-08-08T12:04:04;100797.20;;;17.54;61.03
11499;BME280;5806;48.748;9.278;2023-08-08T12:06:31;100790.25;;;17.59;59.81
11499;BME280;5806;48.748;9.278;2023-08-08T12:08:58;100785.34;;;17.48;60.35
11499;BME280;5806;48.748;9.278;2023-08-08T12:11:27;100782.35;;;17.35;61.83
11499;BME280;5806;48.748;9.278;2023-08-08T12:13:59;100788.16;;;17.33;61.47
11499;BME280;5806;48.748;9.278;2023-08-08T12:16:30;100777.72;;;17.23;62.88
11499;BME280;5806;48.748;9.278;2023-08-08T12:18:59;100777.41;;;17.32;61.78
11499;BME280;5806;48.748;9.278;2023-08-08T12:21:26;100782.89;;;17.39;61.17
11499;BME280;5806;48.748;9.278;2023-08-08T12:23:54;100777.33;;;17.47;60.94
11499;BME280;5806;48.748;9.278;2023-08-08T12:26:21;100780.42;;;17.40;61.55
11499;BME280;5806;48.748;9.278;2023-08-08T12:28:49;100781.64;;;17.68;59.13
11499;BME280;5806;48.748;9.278;2023-08-08T12:31:18;100782.00;;;17.54;59.99
11499;BME280;5806;48.748;9.278;2023-08-08T12:33:45;100780.33;;;17.55;59.92
11499;BME280;5806;48.748;9.278;2023-08-08T12:36:15;100784.69;;;17.66;57.58
11499;BME280;5806;48.748;9.278;2023-08-08T12:38:42;100782.45;;;17.68;58.41
11499;BME280;5806;48.748;9.278;2023-08-08T12:41:09;100782.72;;;17.72;58.22
11499;BME280;5806;48.748;9.278;2023-08-08T12:43:37;100790.48;;;17.67;58.26
11499;BME280;5806;48.748;9.278;2023-08-08T12:46:04;100782.55;;;17.56;58.48
11499;BME280;5806;48.748;9.278;2023-08-08T12:48:32;100788.39;;;17.47;59.51
11499;BME280;5806;48.748;9.278;2023-08-08T12:50:59;100793.06;;;17.54;58.87
11499;BME280;5806;48.748;9.278;2023-08-08T12:53:27;100792.44;;;17.64;58.33
11499;BME280;5806;48.748;9.278;2023-08-08T12:55:54;100790.23;;;17.61;58.53
11499;BME280;5806;48.748;9.278;2023-08-08T12:58:22;100786.66;;;17.61;59.35
11499;BME280;5806;48.748;9.278;2023-08-08T13:00:49;100804.68;;;17.56;59.38
11499;BME280;5806;48.748;9.278;2023-08-08T13:03:17;100808.42;;;17.19;66.94
11499;BME280;5806;48.748;9.278;2023-08-08T13:05:44;100814.08;;;16.89;70.36